Redwood City, CA (94063)

11:24 AM PST on February 13, 2016 (GMT -0800)
Edgewood Park | | Change Station
CLOSE
Current Station
Personal Weather Station
Location: Redwood City, CA
Elevation: 53 ft
Nearby Weather Stations

Elev 53 ft 37.48 °N, 122.25 °W | Updated 12 days ago

Partly Cloudy
Partly Cloudy
63 °F
Feels Like 63 °F
N
10
Wind Variable Wind from NW
Gusts mph

Today
High -- | Low -- °F
--% Chance of Precip.
Yesterday
High -- | Low -- °F
Precip. -- in
Pressure 30.31 in
Visibility 7.0 miles
Clouds Scattered Clouds 600 ft
Dew Point 51 °F
Humidity 66%
Rainfall in
Snow Depth Not available.
7:00 AM 5:45 PM
Waxing Crescent, 33% visible
METAR KSQL 131847Z 32004KT 7SM SCT006 14/14 A3031
Pressure 30.31 in
Visibility 7.0 miles
Clouds Scattered Clouds 600 ft
Dew Point 51 °F
Humidity 66%
Rainfall in
Snow Depth Not available.
7:00 AM 5:45 PM
Waxing Crescent, 33% visible
METAR KSQL 131847Z 32004KT 7SM SCT006 14/14 A3031

10-Day Weather Forecast

Almanac

Astronomy

Feb. 13, 2016 Rise Set
Actual Time
Civil Twilight
Nautical Twilight
Astronomical Twilight
Moon
Length of Visible Light
Length of Day
Tomorrow will be .
, % of the Moon is Illuminated

Today's Extremes

State Highs State Lows

Community

WunderPhotos

Upload Photos

1,892,642 photos uploaded!

WunderBlog® & News

Nearby

Air Quality

  Air Quality AQ Index Pollutant
Not available.

Snow Depth

Station Depth Elevation

Earthquake Activity

City Distance Mag. Time & Date
Minimum magnitude displayed is 2.5.

Coastal Water Temperatures

Place Temperature

Stations

Nearby Weather Stations

Station Location Temp. Windchill Dew Point Humidity Wind Precip. Elev Updated Type
                   

Watches & Warnings

There are currently no watches in effect.